Time;durP1;ratioP1;P1;durP2;ratioP2;P2;SDS_P1;SDS_P2;PMS_P1;PMS_P2;Temp;Humidity;BMP_temperature;BMP_pressure;BME280_temperature;BME280_humidity;BME280_pressure;Samples;Min_cycle;Max_cycle;Signal;HPM_P1;HPM_P2
2021/07/17 00:00:54;;;;;;;4.82;3.22;;;;;;;22.08;63.65;94467.94;4960383;28;20027;-79
2021/07/17 00:03:20;;;;;;;3.05;2.85;;;;;;;22.10;63.30;94459.66;4960737;29;20027;-79
2021/07/17 00:05:46;;;;;;;6.97;2.97;;;;;;;22.08;63.47;94457.34;4944194;28;21736;-79
2021/07/17 00:08:11;;;;;;;5.22;2.90;;;;;;;22.08;63.42;94462.63;4943797;29;20034;-80
2021/07/17 00:10:55;;;;;;;4.35;2.95;;;;;;;22.08;63.32;94459.97;4912257;28;20031;-80
2021/07/17 00:13:21;;;;;;;7.40;3.20;;;;;;;22.07;63.34;94460.31;4928505;29;20035;-80
2021/07/17 00:15:56;;;;;;;7.82;3.13;;;;;;;22.06;63.21;94458.75;4944179;28;20475;-80
2021/07/17 00:18:22;;;;;;;6.97;3.60;;;;;;;22.06;63.17;94464.81;4943955;29;20027;-79
2021/07/17 00:20:47;;;;;;;6.45;3.42;;;;;;;22.07;63.03;94466.38;4960324;28;20038;-80
2021/07/17 00:23:13;;;;;;;14.73;3.22;;;;;;;22.07;63.22;94470.91;4959662;29;20039;-79
2021/07/17 00:25:39;;;;;;;12.60;2.85;;;;;;;22.06;62.97;94470.13;4963167;28;20106;-79
2021/07/17 00:28:05;;;;;;;5.53;3.40;;;;;;;22.05;62.90;94468.56;4948244;29;20023;-79
2021/07/17 00:30:31;;;;;;;6.53;3.53;;;;;;;22.05;62.83;94473.84;4915824;28;20054;-78
2021/07/17 00:32:56;;;;;;;4.30;3.55;;;;;;;22.02;62.88;94466.50;4916085;29;20043;-80
2021/07/17 00:35:22;;;;;;;4.65;3.10;;;;;;;22.03;62.84;94462.00;4927952;29;20431;-79
2021/07/17 00:37:47;;;;;;;6.35;3.45;;;;;;;22.00;62.62;94460.75;4960715;28;20034;-79
2021/07/17 00:40:14;;;;;;;4.45;3.20;;;;;;;21.97;62.92;94469.31;4943063;29;20525;-80
2021/07/17 00:42:41;;;;;;;9.63;3.15;;;;;;;22.00;62.64;94466.03;4927816;29;20057;-80
2021/07/17 00:45:07;;;;;;;8.00;3.60;;;;;;;22.00;62.55;94460.75;4959247;29;20051;-79
2021/07/17 00:47:33;;;;;;;5.70;3.20;;;;;;;21.99;62.69;94464.50;4941591;29;20039;-79
2021/07/17 00:49:58;;;;;;;7.78;3.13;;;;;;;21.94;62.62;94450.59;4924925;29;20066;-80
2021/07/17 00:52:24;;;;;;;5.20;3.17;;;;;;;21.96;62.55;94443.91;4958942;28;20034;-80
2021/07/17 00:54:56;;;;;;;5.72;2.90;;;;;;;22.02;62.67;94447.97;4959558;29;20031;-79
2021/07/17 00:57:22;;;;;;;12.07;3.60;;;;;;;22.05;62.25;94450.03;4925358;29;20035;-80
2021/07/17 00:59:48;;;;;;;6.38;3.65;;;;;;;22.09;62.29;94455.47;4907402;29;20042;-79
2021/07/17 01:02:13;;;;;;;6.15;3.45;;;;;;;22.14;62.03;94450.03;4940209;29;20043;-79
2021/07/17 01:04:41;;;;;;;10.68;3.42;;;;;;;22.16;61.82;94440.69;4941268;29;20475;-80
2021/07/17 01:07:08;;;;;;;7.80;3.70;;;;;;;22.19;61.75;94431.31;4924735;29;20071;-79
2021/07/17 01:09:33;;;;;;;8.43;3.83;;;;;;;22.28;61.35;94428.66;4958504;29;20031;-79
2021/07/17 01:11:59;;;;;;;10.88;3.90;;;;;;;22.31;61.10;94425.41;4925251;29;20035;-79
2021/07/17 01:14:25;;;;;;;4.38;3.60;;;;;;;22.29;61.24;94427.56;4941357;29;20415;-80
2021/07/17 01:16:50;;;;;;;6.43;3.35;;;;;;;22.24;61.63;94433.81;4924531;29;20062;-79
2021/07/17 01:19:16;;;;;;;5.53;3.55;;;;;;;22.28;61.51;94423.34;4940814;29;20042;-80
2021/07/17 01:21:41;;;;;;;5.35;3.42;;;;;;;22.29;61.40;94423.06;4957902;23;20039;-80
2021/07/17 01:24:06;;;;;;;4.85;3.58;;;;;;;22.30;61.63;94421.19;4978020;28;20042;-79
2021/07/17 01:26:32;;;;;;;7.78;3.55;;;;;;;22.30;61.25;94421.97;4957526;29;20027;-80
2021/07/17 01:28:57;;;;;;;6.60;3.60;;;;;;;22.31;61.68;94423.53;4956328;29;20479;-79
2021/07/17 01:31:23;;;;;;;6.15;3.47;;;;;;;22.33;61.21;94417.91;4958725;29;20027;-79
2021/07/17 01:33:48;;;;;;;8.45;3.42;;;;;;;22.38;61.36;94423.03;4958106;29;20027;-80
2021/07/17 01:36:14;;;;;;;5.55;3.70;;;;;;;22.38;61.10;94418.50;4958973;29;20041;-79
2021/07/17 01:38:40;;;;;;;5.55;4.32;;;;;;;22.27;61.49;94417.28;4941499;29;20105;-79
2021/07/17 01:41:06;;;;;;;4.07;3.50;;;;;;;22.21;61.99;94409.81;4958257;29;20487;-79
2021/07/17 01:43:31;;;;;;;9.63;4.75;;;;;;;22.10;62.20;94404.84;4940835;29;20042;-79
2021/07/17 01:45:58;;;;;;;5.82;3.90;;;;;;;21.99;62.69;94406.25;4940645;29;20063;-79
2021/07/17 01:48:23;;;;;;;4.28;3.50;;;;;;;21.77;63.77;94409.03;4939314;29;20103;-79
2021/07/17 01:50:49;;;;;;;9.27;4.53;;;;;;;21.65;64.37;94400.97;4955962;29;20039;-79
2021/07/17 01:53:14;;;;;;;12.23;4.22;;;;;;;21.54;64.76;94398.59;4956303;29;20038;-79
2021/07/17 01:55:40;;;;;;;11.75;3.88;;;;;;;21.52;64.80;94402.66;4957640;29;20514;-80
2021/07/17 01:58:07;;;;;;;4.15;3.75;;;;;;;21.47;64.96;94400.91;4956034;28;20130;-79
2021/07/17 02:00:32;;;;;;;8.82;3.92;;;;;;;21.55;64.77;94402.81;4956979;29;20067;-79
2021/07/17 02:02:58;;;;;;;7.50;3.78;;;;;;;21.62;64.44;94396.25;4957603;29;20517;-79
2021/07/17 02:05:24;;;;;;;9.07;4.10;;;;;;;21.64;64.51;94394.09;4957853;29;20037;-78
2021/07/17 02:07:59;;;;;;;6.68;4.05;;;;;;;21.63;64.14;94395.19;5006634;23;20047;-79
2021/07/17 02:10:28;;;;;;;11.95;4.10;;;;;;;21.73;64.12;94394.88;4976062;28;20037;-78
2021/07/17 02:13:08;;;;;;;8.48;4.63;;;;;;;21.75;64.18;94396.13;4956417;29;20039;-78
2021/07/17 02:15:56;;;;;;;10.02;4.45;;;;;;;21.76;63.94;94392.38;4963327;29;20047;-78
2021/07/17 02:18:32;;;;;;;6.15;4.70;;;;;;;21.80;64.25;94398.63;4966555;29;20042;-78
2021/07/17 02:21:05;;;;;;;15.60;4.20;;;;;;;21.86;63.92;94393.94;4948664;29;20038;-79
2021/07/17 02:23:30;;;;;;;11.48;5.03;;;;;;;21.86;63.76;94393.94;4933153;29;20035;-77
2021/07/17 02:25:56;;;;;;;10.13;4.60;;;;;;;21.86;63.70;94386.78;4934721;29;20086;-78
2021/07/17 02:28:21;;;;;;;5.00;4.25;;;;;;;21.86;63.77;94392.06;4964758;29;20407;-78
2021/07/17 02:30:48;;;;;;;7.20;4.55;;;;;;;21.86;63.85;94386.78;4926697;29;20039;-79
2021/07/17 02:33:17;;;;;;;10.82;4.30;;;;;;;21.91;63.56;94383.19;4940146;29;20027;-79
2021/07/17 02:35:42;;;;;;;9.25;4.88;;;;;;;21.93;63.66;94381.00;4940558;29;20085;-79
2021/07/17 02:38:08;;;;;;;8.40;4.75;;;;;;;21.91;63.88;94380.53;4956579;29;20039;-79
2021/07/17 02:40:33;;;;;;;9.68;4.70;;;;;;;21.95;63.53;94383.34;4957571;29;20109;-80
2021/07/17 02:42:59;;;;;;;10.77;5.38;;;;;;;21.88;63.90;94378.53;4957334;29;20035;-80
2021/07/17 02:45:27;;;;;;;9.65;5.03;;;;;;;21.86;64.17;94384.13;4940037;29;20039;-79
2021/07/17 02:47:53;;;;;;;7.32;4.95;;;;;;;21.91;64.12;94387.72;4957687;29;20031;-79
2021/07/17 02:50:18;;;;;;;11.68;4.85;;;;;;;21.95;63.88;94378.81;4957223;29;20034;-79
2021/07/17 02:52:44;;;;;;;9.25;5.18;;;;;;;21.82;64.39;94379.78;4940095;29;20042;-79
2021/07/17 02:55:10;;;;;;;6.75;4.95;;;;;;;21.73;64.77;94381.66;4923473;29;20487;-79
2021/07/17 02:57:38;;;;;;;6.80;4.80;;;;;;;21.64;64.97;94371.06;4939114;29;20035;-79
2021/07/17 03:02:33;;;;;;;7.57;4.63;;;;;;;21.69;64.99;94378.84;4963246;23;20439;-79
2021/07/17 03:04:58;;;;;;;12.95;4.80;;;;;;;21.73;64.56;94371.06;4955331;29;20031;-79
2021/07/17 03:07:24;;;;;;;8.27;5.00;;;;;;;21.74;64.29;94377.91;4954604;28;20039;-79
2021/07/17 03:09:49;;;;;;;12.82;5.30;;;;;;;21.78;64.19;94376.97;4956134;28;20035;-79
2021/07/17 03:12:15;;;;;;;10.43;5.57;;;;;;;21.87;64.21;94376.97;4958982;28;20038;-79
2021/07/17 03:14:40;;;;;;;10.07;5.07;;;;;;;21.91;63.93;94377.91;4959707;29;20031;-79
2021/07/17 03:17:05;;;;;;;10.40;4.82;;;;;;;21.91;63.13;94377.91;4959833;28;20035;-79
2021/07/17 03:19:31;;;;;;;5.65;5.05;;;;;;;22.01;62.98;94382.88;4927340;29;20042;-79
2021/07/17 03:21:56;;;;;;;5.95;5.18;;;;;;;22.11;62.28;94382.56;4943016;29;20031;-79
2021/07/17 03:24:22;;;;;;;14.90;5.57;;;;;;;22.15;62.04;94380.09;4942530;29;20035;-79
2021/07/17 03:26:47;;;;;;;10.90;6.10;;;;;;;22.25;60.63;94373.66;4958283;28;20035;-79
2021/07/17 03:29:13;;;;;;;12.30;5.95;;;;;;;22.29;60.04;94377.22;4959807;29;20031;-78
2021/07/17 03:31:38;;;;;;;10.88;5.78;;;;;;;22.35;59.27;94376.75;4959568;28;20051;-79
2021/07/17 03:34:04;;;;;;;9.30;5.18;;;;;;;22.54;58.70;94381.69;4959285;29;20035;-80
2021/07/17 03:36:29;;;;;;;21.52;5.47;;;;;;;22.61;57.91;94378.53;4957869;28;20392;-79
2021/07/17 03:38:55;;;;;;;19.00;5.75;;;;;;;22.63;57.97;94371.84;4958583;29;20086;-79
2021/07/17 03:41:20;;;;;;;8.00;6.22;;;;;;;22.70;57.51;94382.72;4925146;29;20447;-79
2021/07/17 03:43:46;;;;;;;7.55;6.05;;;;;;;22.53;58.01;94382.78;4931544;23;20101;-79
2021/07/17 03:46:17;;;;;;;9.20;5.70;;;;;;;22.52;58.08;94375.94;4960863;28;20038;-80
2021/07/17 03:48:43;;;;;;;21.20;5.80;;;;;;;22.73;57.30;94376.78;4978362;28;20027;-79
2021/07/17 03:51:08;;;;;;;17.25;5.55;;;;;;;22.89;57.30;94389.53;5021908;23;20051;-81
2021/07/17 03:53:34;;;;;;;14.48;5.53;;;;;;;22.98;57.39;94382.31;4959205;29;20031;-80
2021/07/17 03:56:02;;;;;;;11.45;6.22;;;;;;;23.08;57.52;94379.28;4958674;28;20046;-78
2021/07/17 03:58:28;;;;;;;14.52;6.63;;;;;;;23.11;57.66;94381.31;4958130;29;20135;-80
2021/07/17 04:00:53;;;;;;;10.60;5.97;;;;;;;23.31;57.47;94387.75;4941454;29;20495;-80
2021/07/17 04:03:19;;;;;;;14.13;6.20;;;;;;;23.39;57.30;94381.59;4957653;29;20135;-78
2021/07/17 04:05:45;;;;;;;11.07;6.20;;;;;;;23.35;57.48;94384.13;4922763;28;20484;-80
2021/07/17 04:08:11;;;;;;;12.48;6.00;;;;;;;23.43;57.77;94379.88;4941442;29;20031;-78
2021/07/17 04:10:42;;;;;;;12.45;6.35;;;;;;;24.06;56.02;94371.88;4957667;28;20055;-78
2021/07/17 04:13:08;;;;;;;14.77;11.40;;;;;;;25.11;52.73;94379.16;4957829;29;20035;-79
2021/07/17 04:15:33;;;;;;;13.48;6.75;;;;;;;26.19;49.77;94369.66;4957970;28;20050;-79
2021/07/17 04:17:58;;;;;;;10.00;5.57;;;;;;;27.52;46.45;94369.84;4957089;29;20023;-78
2021/07/17 04:20:24;;;;;;;10.15;5.47;;;;;;;28.75;43.20;94369.91;4954774;29;20476;-80
2021/07/17 04:22:49;;;;;;;9.27;5.63;;;;;;;29.69;40.98;94375.53;4954289;28;20035;-78
2021/07/17 04:25:15;;;;;;;11.90;5.03;;;;;;;30.65;38.30;94382.03;4956888;29;20050;-78
2021/07/17 04:27:40;;;;;;;13.45;5.53;;;;;;;31.50;36.79;94371.16;4958001;28;20042;-81
2021/07/17 04:30:07;;;;;;;10.95;5.07;;;;;;;31.88;34.94;94377.91;4940645;29;20472;-79
2021/07/17 04:32:33;;;;;;;8.93;4.82;;;;;;;32.76;33.67;94372.00;4958221;28;20023;-79
2021/07/17 04:34:58;;;;;;;11.88;5.50;;;;;;;33.77;31.88;94376.16;4941548;29;20127;-79
2021/07/17 04:37:23;;;;;;;5.57;4.50;;;;;;;34.97;30.08;94379.41;4941860;29;20067;-79
2021/07/17 04:39:49;;;;;;;8.27;4.65;;;;;;;35.47;28.28;94384.41;4959158;29;20042;-80
2021/07/17 04:42:15;;;;;;;9.07;4.25;;;;;;;36.18;27.99;94375.53;4964735;23;20412;-79
2021/07/17 04:44:41;;;;;;;9.02;4.18;;;;;;;37.00;26.48;94376.34;4959122;29;20031;-79
2021/07/17 04:47:06;;;;;;;6.65;4.38;;;;;;;38.21;24.89;94374.94;4941042;29;20081;-79
2021/07/17 04:49:32;;;;;;;6.93;4.50;;;;;;;38.85;23.86;94373.56;4956486;29;20093;-80
2021/07/17 04:51:57;;;;;;;17.63;3.97;;;;;;;39.57;22.88;94372.63;4957786;28;20027;-80
2021/07/17 04:54:22;;;;;;;9.82;4.10;;;;;;;40.24;21.81;94367.28;4958118;29;20043;-79
2021/07/17 04:56:48;;;;;;;13.75;4.65;;;;;;;41.12;20.97;94370.47;4958648;28;20034;-80
2021/07/17 04:59:13;;;;;;;13.27;4.10;;;;;;;41.66;19.84;94362.81;4956772;29;20515;-79
2021/07/17 05:01:39;;;;;;;14.98;3.80;;;;;;;42.34;19.41;94363.13;4958868;28;20039;-79
2021/07/17 05:04:04;;;;;;;11.57;4.05;;;;;;;42.89;18.66;94357.13;4964082;23;20534;-80
2021/07/17 05:06:30;;;;;;;11.10;3.67;;;;;;;43.23;18.12;94362.38;4953670;23;20486;-79
2021/07/17 05:08:55;;;;;;;6.20;3.80;;;;;;;43.42;17.73;94355.72;4978196;28;20042;-80
2021/07/17 05:11:21;;;;;;;9.00;3.60;;;;;;;43.48;17.69;94360.63;4960711;28;20031;-80
2021/07/17 05:13:46;;;;;;;8.88;3.85;;;;;;;43.66;17.55;94355.13;4959372;28;20458;-80
2021/07/17 05:16:11;;;;;;;5.65;3.65;;;;;;;44.08;16.70;94357.97;4978018;28;20023;-80
2021/07/17 05:18:37;;;;;;;9.07;3.67;;;;;;;44.15;16.94;94354.22;4978324;28;20079;-80
2021/07/17 05:21:02;;;;;;;6.97;3.85;;;;;;;44.68;16.39;94356.47;4977962;28;20419;-80
2021/07/17 05:25:57;;;;;;;9.23;3.72;;;;;;;45.99;14.95;94352.72;4984322;23;20518;-80
2021/07/17 05:28:23;;;;;;;10.98;3.25;;;;;;;46.00;14.64;94350.72;4974324;28;20105;-80
2021/07/17 05:30:49;;;;;;;17.83;3.78;;;;;;;45.82;14.86;94350.91;4978638;28;20038;-80
2021/07/17 05:33:14;;;;;;;13.25;3.75;;;;;;;46.53;14.07;94358.91;4962929;28;20034;-81
2021/07/17 05:35:40;;;;;;;8.52;3.42;;;;;;;45.84;14.81;94348.44;4961526;28;20101;-80
2021/07/17 05:38:06;;;;;;;11.43;3.60;;;;;;;44.48;16.22;94355.03;4961417;28;20479;-80
2021/07/17 05:40:32;;;;;;;6.78;3.45;;;;;;;44.18;16.46;94356.03;4961197;28;20023;-80
2021/07/17 05:42:57;;;;;;;19.52;3.53;;;;;;;44.23;16.10;94355.41;4962741;28;20039;-80
2021/07/17 05:45:23;;;;;;;8.68;3.20;;;;;;;44.60;15.71;94350.59;4972198;28;20033;-79
2021/07/17 05:47:48;;;;;;;6.90;3.33;;;;;;;44.54;15.97;94353.19;4941016;28;20022;-78
2021/07/17 05:50:14;;;;;;;8.98;3.55;;;;;;;44.22;16.27;94349.16;4988894;28;20031;-80
2021/07/17 05:52:46;;;;;;;11.57;3.40;;;;;;;45.86;14.66;94351.47;4959598;28;20114;-79
2021/07/17 05:55:12;;;;;;;10.65;3.50;;;;;;;45.20;15.11;94333.94;4977364;28;20027;-80
2021/07/17 05:57:37;;;;;;;9.68;3.13;;;;;;;46.01;14.23;94335.75;4973887;23;20090;-80
2021/07/17 06:00:07;;;;;;;8.25;3.65;;;;;;;45.73;14.55;94333.28;4958414;29;20038;-80
2021/07/17 06:02:32;;;;;;;14.90;3.15;;;;;;;44.99;14.84;94343.25;4977528;23;20090;-80
2021/07/17 06:04:58;;;;;;;13.23;3.55;;;;;;;45.27;14.51;94334.88;4941647;29;20436;-80
2021/07/17 06:07:24;;;;;;;5.05;3.20;;;;;;;46.11;14.40;94334.47;4956572;29;20070;-80
2021/07/17 06:09:49;;;;;;;12.25;3.17;;;;;;;45.19;13.66;94334.41;4954293;23;20038;-80
2021/07/17 06:12:15;;;;;;;4.95;2.60;;;;;;;45.52;13.89;94342.59;4978080;28;20034;-80
2021/07/17 06:14:40;;;;;;;13.52;3.17;;;;;;;44.66;14.46;94326.03;4977574;28;20152;-80
2021/07/17 06:17:11;;;;;;;11.50;3.17;;;;;;;44.60;14.34;94334.88;4977041;28;20030;-80
2021/07/17 06:19:37;;;;;;;10.93;2.97;;;;;;;45.58;13.54;94320.72;4977052;28;20414;-80
2021/07/17 06:22:02;;;;;;;11.75;3.05;;;;;;;46.54;12.85;94315.66;4960523;28;20500;-80
2021/07/17 06:24:28;;;;;;;14.40;2.95;;;;;;;47.60;11.77;94324.59;4976003;28;20102;-80
2021/07/17 06:26:53;;;;;;;13.65;4.28;;;;;;;48.08;11.69;94314.56;4959710;28;20042;-80
2021/07/17 06:29:19;;;;;;;16.83;3.17;;;;;;;48.47;11.29;94319.63;4977182;28;20038;-80
2021/07/17 06:31:44;;;;;;;6.60;2.30;;;;;;;48.04;11.32;94311.25;4944024;28;20034;-80
2021/07/17 06:34:10;;;;;;;15.88;2.50;;;;;;;47.70;11.67;94306.66;4944298;28;20422;-80
2021/07/17 06:36:35;;;;;;;15.63;2.63;;;;;;;47.60;11.85;94308.06;4977692;28;20034;-80
2021/07/17 06:39:01;;;;;;;11.15;2.72;;;;;;;47.68;11.81;94307.16;4979935;28;20034;-80
2021/07/17 06:41:26;;;;;;;10.50;2.60;;;;;;;48.56;11.34;94302.91;4981216;28;20031;-80
2021/07/17 06:43:52;;;;;;;15.15;2.88;;;;;;;47.89;10.97;94293.34;4983686;28;20426;-80
2021/07/17 06:46:17;;;;;;;20.30;3.65;;;;;;;46.03;12.29;94305.81;4973292;23;20515;-80
2021/07/17 06:48:42;;;;;;;12.32;3.28;;;;;;;45.51;12.84;94299.88;4962278;29;20039;-80
2021/07/17 06:51:11;;;;;;;10.57;3.38;;;;;;;45.46;12.38;94289.56;4961406;28;20039;-80
2021/07/17 06:53:39;;;;;;;7.20;2.80;;;;;;;46.26;11.97;94291.22;4945118;29;20031;-80
2021/07/17 06:56:05;;;;;;;13.75;2.40;;;;;;;46.57;11.58;94278.94;4944222;29;20055;-80
2021/07/17 06:58:30;;;;;;;11.63;2.75;;;;;;;46.16;11.22;94287.06;4961033;29;20039;-80
2021/07/17 07:00:57;;;;;;;8.75;2.80;;;;;;;44.66;12.03;94284.88;4960653;28;20042;-80
2021/07/17 07:03:22;;;;;;;8.75;2.60;;;;;;;44.27;12.62;94282.00;4961425;29;20503;-80
2021/07/17 07:05:48;;;;;;;11.00;2.92;;;;;;;42.29;14.11;94292.63;4961536;28;20039;-80
2021/07/17 07:08:23;;;;;;;5.35;2.40;;;;;;;40.23;16.50;94286.75;4944399;29;20098;-81
2021/07/17 07:10:48;;;;;;;15.60;2.55;;;;;;;39.73;16.34;94277.31;4945343;28;20122;-79
2021/07/17 07:13:15;;;;;;;9.57;2.58;;;;;;;38.38;18.25;94280.69;4928516;29;20032;-79
2021/07/17 07:15:40;;;;;;;13.07;3.28;;;;;;;37.64;18.93;94280.31;4943327;28;20032;-79
2021/07/17 07:18:06;;;;;;;21.33;4.30;;;;;;;37.69;19.35;94263.53;4958231;29;20083;-80
2021/07/17 07:20:31;;;;;;;6.13;2.92;;;;;;;37.56;19.00;94261.44;4960575;28;20055;-80
2021/07/17 07:22:57;;;;;;;17.95;3.13;;;;;;;37.36;19.43;94274.25;4943804;29;20090;-79
2021/07/17 07:25:23;;;;;;;11.05;2.80;;;;;;;36.76;19.94;94276.03;4944004;29;20094;-79
2021/07/17 07:27:48;;;;;;;11.40;3.10;;;;;;;36.22;20.36;94273.38;4943320;29;20400;-79
2021/07/17 07:30:15;;;;;;;8.68;2.97;;;;;;;35.79;21.16;94273.16;4927521;29;20315;-80
2021/07/17 07:32:40;;;;;;;13.30;3.08;;;;;;;34.81;22.17;94274.53;4941165;29;20034;-79
2021/07/17 07:35:06;;;;;;;14.25;2.70;;;;;;;34.74;22.59;94276.56;4961119;29;20039;-80
2021/07/17 07:37:31;;;;;;;11.18;2.72;;;;;;;35.11;22.07;94287.41;4961539;28;20039;-79
2021/07/17 07:39:57;;;;;;;10.88;2.88;;;;;;;35.18;22.06;94281.94;4959127;29;20043;-79
2021/07/17 07:42:29;;;;;;;19.30;3.20;;;;;;;35.17;21.92;94290.47;4943067;29;20550;-79
2021/07/17 07:44:54;;;;;;;17.95;2.83;;;;;;;34.92;22.04;94290.69;4942123;29;20035;-79
2021/07/17 07:47:20;;;;;;;14.45;2.97;;;;;;;34.70;22.71;94289.31;4960077;28;20031;-79
2021/07/17 07:49:48;;;;;;;14.27;2.88;;;;;;;33.96;22.48;94300.19;4960420;29;20031;-79
2021/07/17 07:52:14;;;;;;;14.55;3.20;;;;;;;33.47;23.64;94303.06;4959005;28;20042;-80
2021/07/17 07:54:39;;;;;;;11.15;3.30;;;;;;;33.49;24.08;94284.56;4942431;29;20031;-79
2021/07/17 07:57:05;;;;;;;6.38;2.65;;;;;;;33.36;23.39;94276.16;4959313;28;20039;-79
2021/07/17 07:59:30;;;;;;;11.70;3.47;;;;;;;33.01;23.88;94295.81;4970186;23;20047;-79
2021/07/17 08:02:00;;;;;;;10.80;3.78;;;;;;;32.95;24.08;94289.31;4959797;28;20050;-79
2021/07/17 08:06:51;;;;;;;9.20;3.10;;;;;;;32.47;25.07;94284.28;5063582;23;20048;-79
2021/07/17 08:09:16;;;;;;;11.05;3.17;;;;;;;32.39;25.29;94285.47;4959462;29;20043;-79
2021/07/17 08:11:42;;;;;;;22.83;4.80;;;;;;;32.57;25.05;94280.06;4926499;29;20086;-79
2021/07/17 08:14:07;;;;;;;15.05;3.22;;;;;;;32.68;25.36;94281.59;4958822;29;20035;-79
2021/07/17 08:16:33;;;;;;;8.10;3.53;;;;;;;32.20;25.63;94273.84;4959090;28;20039;-79
2021/07/17 08:18:58;;;;;;;13.45;3.20;;;;;;;32.03;25.84;94290.72;4942830;29;20031;-78
2021/07/17 08:21:24;;;;;;;10.35;3.58;;;;;;;31.48;26.46;94298.97;4926184;29;20594;-78
2021/07/17 08:23:49;;;;;;;10.18;3.10;;;;;;;31.09;27.20;94277.25;4958128;29;20039;-79
2021/07/17 08:26:15;;;;;;;8.52;2.63;;;;;;;31.12;27.10;94273.81;4926589;29;20094;-79
2021/07/17 08:28:40;;;;;;;17.30;3.08;;;;;;;31.22;27.21;94272.34;4925989;29;20051;-79
2021/07/17 08:31:12;;;;;;;19.08;3.90;;;;;;;31.16;26.83;94261.19;4959674;28;20038;-79
2021/07/17 08:33:37;;;;;;;13.70;3.20;;;;;;;31.19;27.06;94249.69;4941805;29;20359;-79
2021/07/17 08:36:03;;;;;;;5.90;3.05;;;;;;;30.93;27.22;94272.19;4959325;28;20039;-78
2021/07/17 08:38:28;;;;;;;23.55;3.30;;;;;;;30.94;27.17;94252.25;4957974;29;20609;-79
2021/07/17 08:40:55;;;;;;;13.38;3.35;;;;;;;30.75;27.64;94264.00;4957250;28;20059;-79
2021/07/17 08:43:21;;;;;;;13.32;3.60;;;;;;;31.04;27.28;94246.16;4941640;29;20039;-79
2021/07/17 08:45:47;;;;;;;13.07;3.22;;;;;;;31.20;27.17;94258.53;4940547;28;20057;-78
2021/07/17 08:48:12;;;;;;;30.98;3.40;;;;;;;30.99;26.17;94243.81;4959013;29;20062;-79
2021/07/17 08:50:38;;;;;;;16.77;3.28;;;;;;;30.85;26.41;94233.00;4925920;28;20038;-78
2021/07/17 08:53:03;;;;;;;7.47;3.00;;;;;;;30.90;25.94;94256.81;4941563;29;20038;-79
2021/07/17 08:55:29;;;;;;;26.08;3.50;;;;;;;30.55;26.36;94254.63;4925971;28;20067;-79
2021/07/17 08:57:57;;;;;;;18.67;3.28;;;;;;;30.48;26.76;94244.63;4941965;29;20030;-79
2021/07/17 09:00:27;;;;;;;4.82;2.90;;;;;;;30.70;26.31;94236.72;4958298;29;20042;-79
2021/07/17 09:02:55;;;;;;;15.85;3.40;;;;;;;30.58;26.33;94279.94;4958446;29;20459;-81
2021/07/17 09:05:26;;;;;;;24.38;3.10;;;;;;;30.46;26.30;94241.53;4964989;23;20278;-79
2021/07/17 09:07:52;;;;;;;13.15;3.20;;;;;;;30.44;26.09;94265.28;4939327;29;20032;-79
2021/07/17 09:10:28;;;;;;;17.48;3.35;;;;;;;30.33;26.23;94244.88;4922753;29;20492;-79
2021/07/17 09:13:25;;;;;;;14.23;2.80;;;;;;;30.52;26.10;94251.91;4938498;29;20039;-78
2021/07/17 09:15:50;;;;;;;9.27;2.88;;;;;;;30.39;26.14;94268.28;4936860;29;20135;-78
2021/07/17 09:18:21;;;;;;;14.57;3.05;;;;;;;30.12;26.61;94258.88;4938214;29;20063;-80
2021/07/17 09:21:04;;;;;;;18.15;3.20;;;;;;;30.05;26.50;94231.97;4939352;29;20039;-78
2021/07/17 09:23:35;;;;;;;26.08;3.00;;;;;;;30.16;25.78;94238.22;4921625;29;20114;-78
2021/07/17 09:26:08;;;;;;;18.00;2.60;;;;;;;30.10;25.97;94251.19;4937927;29;20039;-78
2021/07/17 09:28:33;;;;;;;20.15;2.92;;;;;;;30.13;26.05;94238.97;4935270;29;20051;-79
2021/07/17 09:31:00;;;;;;;23.33;2.55;;;;;;;30.15;25.88;94242.03;4952953;29;20043;-79
2021/07/17 09:33:26;;;;;;;9.48;2.85;;;;;;;30.15;25.70;94244.72;4949893;23;20134;-81
2021/07/17 09:35:53;;;;;;;20.25;3.20;;;;;;;30.29;25.40;94236.81;4960007;28;20035;-81
2021/07/17 09:38:19;;;;;;;17.77;2.65;;;;;;;30.38;25.09;94231.09;4959442;29;20081;-80
2021/07/17 09:40:53;;;;;;;14.82;2.88;;;;;;;30.31;25.51;94234.50;4942211;28;20483;-81
2021/07/17 09:43:32;;;;;;;13.93;2.67;;;;;;;30.40;25.54;94226.13;4939366;29;20031;-79
2021/07/17 09:45:58;;;;;;;18.00;2.80;;;;;;;30.47;25.23;94210.88;4958304;28;20043;-80
2021/07/17 09:48:29;;;;;;;16.50;2.90;;;;;;;30.67;25.35;94197.22;4958454;29;20091;-79
2021/07/17 09:50:55;;;;;;;16.90;3.40;;;;;;;30.71;25.29;94200.69;4958463;28;20031;-79
2021/07/17 09:53:40;;;;;;;6.55;3.58;;;;;;;30.81;24.67;94221.47;4941907;29;20043;-79
2021/07/17 09:56:19;;;;;;;15.70;3.13;;;;;;;30.70;25.04;94220.63;4958494;28;20035;-80
2021/07/17 09:58:44;;;;;;;19.30;2.67;;;;;;;30.75;24.99;94204.16;4925247;29;20087;-79
2021/07/17 10:01:17;;;;;;;6.88;2.28;;;;;;;30.86;25.10;94209.59;4957911;28;20126;-79
2021/07/17 10:03:52;;;;;;;9.73;2.97;;;;;;;30.81;24.98;94216.09;4957987;29;20062;-79
2021/07/17 10:06:31;;;;;;;15.10;2.92;;;;;;;30.76;25.43;94200.38;4957105;28;20031;-79
2021/07/17 10:09:01;;;;;;;19.08;2.67;;;;;;;30.77;25.55;94191.16;4956935;29;20038;-79
2021/07/17 10:11:27;;;;;;;17.05;2.83;;;;;;;30.75;25.69;94207.66;4956942;28;20066;-82
2021/07/17 10:13:53;;;;;;;11.50;4.22;;;;;;;30.72;25.67;94194.94;4924327;29;20070;-79
2021/07/17 10:16:23;;;;;;;12.00;2.45;;;;;;;30.80;25.19;94195.78;4924693;29;20035;-79
2021/07/17 10:18:49;;;;;;;10.60;2.63;;;;;;;30.91;25.02;94201.94;4924661;29;20031;-79
2021/07/17 10:21:14;;;;;;;10.25;2.47;;;;;;;30.96;24.68;94192.78;4939528;29;20049;-81
2021/07/17 10:23:40;;;;;;;16.92;2.90;;;;;;;31.02;24.90;94181.31;4957556;29;20145;-79
2021/07/17 10:26:07;;;;;;;7.13;2.60;;;;;;;31.02;24.84;94192.03;4955708;28;20059;-80
2021/07/17 10:28:35;;;;;;;9.90;2.35;;;;;;;31.01;23.90;94187.81;4924292;29;20039;-81
2021/07/17 10:31:01;;;;;;;14.00;2.72;;;;;;;30.99;24.13;94192.81;4945199;23;20126;-81
2021/07/17 10:33:29;;;;;;;15.98;2.55;;;;;;;31.09;24.87;94190.56;4976157;28;20062;-81
2021/07/17 10:35:54;;;;;;;13.85;2.95;;;;;;;31.17;24.42;94194.78;4941869;28;20038;-81
2021/07/17 10:38:20;;;;;;;18.42;3.58;;;;;;;31.03;24.27;94192.81;4959383;28;20070;-80
2021/07/17 10:40:45;;;;;;;18.95;3.00;;;;;;;30.98;23.77;94180.53;4943845;28;20026;-81
2021/07/17 10:43:11;;;;;;;18.30;3.10;;;;;;;30.96;23.83;94177.44;4959485;28;20053;-81
2021/07/17 10:45:38;;;;;;;13.15;2.65;;;;;;;30.94;24.05;94169.00;4926181;28;20034;-81
2021/07/17 10:48:04;;;;;;;3.88;2.33;;;;;;;30.97;24.01;94168.25;4975728;28;20058;-81
2021/07/17 10:50:33;;;;;;;6.70;2.15;;;;;;;30.87;24.05;94177.00;4973131;28;20042;-81
2021/07/17 10:52:59;;;;;;;9.13;2.42;;;;;;;30.73;23.83;94171.56;4976216;28;20034;-78
2021/07/17 10:55:33;;;;;;;10.75;2.10;;;;;;;30.63;24.01;94153.50;4942858;28;20034;-80
2021/07/17 10:58:11;;;;;;;10.20;2.58;;;;;;;30.58;24.48;94159.19;4927966;28;20119;-79
2021/07/17 11:00:42;;;;;;;15.75;3.85;;;;;;;30.55;24.18;94173.34;4974882;28;20037;-80
2021/07/17 11:03:16;;;;;;;6.38;2.70;;;;;;;30.53;24.49;94184.47;4976172;28;20039;-80
2021/07/17 11:05:42;;;;;;;15.13;2.83;;;;;;;30.44;24.24;94178.66;4976509;28;20430;-80
2021/07/17 11:08:27;;;;;;;11.48;2.47;;;;;;;30.38;24.44;94156.75;4942921;28;20031;-81
2021/07/17 11:10:52;;;;;;;7.90;2.60;;;;;;;30.45;24.30;94151.47;4944860;28;20030;-80
2021/07/17 11:13:29;;;;;;;5.15;2.42;;;;;;;30.36;24.66;94134.91;4976052;28;20030;-81
2021/07/17 11:15:54;;;;;;;12.43;2.42;;;;;;;30.41;24.17;94131.88;4958127;28;20031;-81
2021/07/17 11:18:20;;;;;;;9.77;2.50;;;;;;;30.46;24.16;94139.59;4975612;28;20518;-80
2021/07/17 11:20:46;;;;;;;22.10;2.63;;;;;;;30.51;24.29;94135.00;4958423;28;20141;-81
2021/07/17 11:23:16;;;;;;;16.00;2.55;;;;;;;30.64;24.32;94128.22;4926942;28;20054;-81
2021/07/17 11:25:57;;;;;;;11.90;2.30;;;;;;;30.51;23.54;94130.41;4927972;28;20403;-80
2021/07/17 11:28:44;;;;;;;3.90;2.33;;;;;;;30.51;23.91;94129.63;4958652;28;20321;-80
2021/07/17 11:31:31;;;;;;;14.73;2.63;;;;;;;30.70;23.74;94137.44;4976448;28;20035;-81
2021/07/17 11:34:17;;;;;;;9.40;2.50;;;;;;;30.65;23.71;94137.78;4980435;28;20035;-80
2021/07/17 11:36:44;;;;;;;13.43;2.28;;;;;;;30.42;23.82;94128.03;4970655;28;20054;-79